sensor_id;sensor_type;location;lat;lon;timestamp;temperature;humidity
18868;DHT22;9563;49.240;9.088;2024-01-27T05:01:16;1.00;99.90
18868;DHT22;9563;49.240;9.088;2024-01-27T05:03:43;1.10;99.90
18868;DHT22;9563;49.240;9.088;2024-01-27T05:06:11;1.10;99.90
18868;DHT22;9563;49.240;9.088;2024-01-27T05:08:37;1.00;99.90
18868;DHT22;9563;49.240;9.088;2024-01-27T05:11:04;1.00;99.90
18868;DHT22;9563;49.240;9.088;2024-01-27T05:13:31;1.00;99.90
18868;DHT22;9563;49.240;9.088;2024-01-27T05:15:58;1.10;99.90
18868;DHT22;9563;49.240;9.088;2024-01-27T05:18:27;1.20;99.90
18868;DHT22;9563;49.240;9.088;2024-01-27T05:20:54;1.20;99.90
18868;DHT22;9563;49.240;9.088;2024-01-27T05:23:20;1.20;99.90
18868;DHT22;9563;49.240;9.088;2024-01-27T05:25:48;1.10;99.90
18868;DHT22;9563;49.240;9.088;2024-01-27T05:28:15;1.00;99.90
18868;DHT22;9563;49.240;9.088;2024-01-27T05:30:43;1.00;99.90
18868;DHT22;9563;49.240;9.088;2024-01-27T05:33:10;1.00;99.90
18868;DHT22;9563;49.240;9.088;2024-01-27T05:35:38;1.10;99.90
18868;DHT22;9563;49.240;9.088;2024-01-27T05:38:05;1.10;99.90
18868;DHT22;9563;49.240;9.088;2024-01-27T05:40:32;1.10;99.90
18868;DHT22;9563;49.240;9.088;2024-01-27T05:42:59;1.20;99.90
18868;DHT22;9563;49.240;9.088;2024-01-27T05:45:26;1.30;99.90
18868;DHT22;9563;49.240;9.088;2024-01-27T05:47:54;1.20;99.90
18868;DHT22;9563;49.240;9.088;2024-01-27T05:50:21;1.20;99.90
18868;DHT22;9563;49.240;9.088;2024-01-27T05:52:49;1.20;99.90
18868;DHT22;9563;49.240;9.088;2024-01-27T05:55:16;1.30;99.90
18868;DHT22;9563;49.240;9.088;2024-01-27T05:57:43;1.20;99.90
18868;DHT22;9563;49.240;9.088;2024-01-27T06:00:12;1.20;99.90
18868;DHT22;9563;49.240;9.088;2024-01-27T06:02:39;1.30;99.90
18868;DHT22;9563;49.240;9.088;2024-01-27T06:05:06;1.30;99.90
18868;DHT22;9563;49.240;9.088;2024-01-27T06:07:37;1.30;99.90
18868;DHT22;9563;49.240;9.088;2024-01-27T06:10:07;1.10;99.90
18868;DHT22;9563;49.240;9.088;2024-01-27T06:12:34;1.20;99.90
18868;DHT22;9563;49.240;9.088;2024-01-27T06:15:01;1.20;99.90
18868;DHT22;9563;49.240;9.088;2024-01-27T06:17:28;1.20;99.90
18868;DHT22;9563;49.240;9.088;2024-01-27T06:19:55;1.20;99.90
18868;DHT22;9563;49.240;9.088;2024-01-27T06:22:22;1.20;99.90
18868;DHT22;9563;49.240;9.088;2024-01-27T06:24:49;1.20;99.90
18868;DHT22;9563;49.240;9.088;2024-01-27T06:27:17;1.20;99.90
18868;DHT22;9563;49.240;9.088;2024-01-27T06:29:44;1.00;99.90
18868;DHT22;9563;49.240;9.088;2024-01-27T06:32:11;0.90;99.90
18868;DHT22;9563;49.240;9.088;2024-01-27T06:34:38;0.90;99.90
18868;DHT22;9563;49.240;9.088;2024-01-27T06:37:05;0.90;99.90
18868;DHT22;9563;49.240;9.088;2024-01-27T06:39:32;0.90;99.90
18868;DHT22;9563;49.240;9.088;2024-01-27T06:41:59;0.90;99.90
18868;DHT22;9563;49.240;9.088;2024-01-27T06:44:27;1.00;99.90
18868;DHT22;9563;49.240;9.088;2024-01-27T06:46:55;1.00;99.90
18868;DHT22;9563;49.240;9.088;2024-01-27T06:49:21;1.00;99.90
18868;DHT22;9563;49.240;9.088;2024-01-27T06:51:48;1.20;99.90
18868;DHT22;9563;49.240;9.088;2024-01-27T06:54:15;1.20;99.90
18868;DHT22;9563;49.240;9.088;2024-01-27T06:56:42;1.20;99.90
18868;DHT22;9563;49.240;9.088;2024-01-27T06:59:09;1.10;99.90
18868;DHT22;9563;49.240;9.088;2024-01-27T07:01:37;1.10;99.90
18868;DHT22;9563;49.240;9.088;2024-01-27T07:04:05;1.00;99.90
18868;DHT22;9563;49.240;9.088;2024-01-27T07:06:32;0.90;99.90
18868;DHT22;9563;49.240;9.088;2024-01-27T07:08:58;0.70;99.90
18868;DHT22;9563;49.240;9.088;2024-01-27T07:11:25;0.70;99.90
18868;DHT22;9563;49.240;9.088;2024-01-27T07:13:52;0.60;99.90
18868;DHT22;9563;49.240;9.088;2024-01-27T07:16:19;0.50;99.90
18868;DHT22;9563;49.240;9.088;2024-01-27T07:18:47;0.60;99.90
18868;DHT22;9563;49.240;9.088;2024-01-27T07:21:15;0.70;99.90
18868;DHT22;9563;49.240;9.088;2024-01-27T07:23:44;0.80;99.90
18868;DHT22;9563;49.240;9.088;2024-01-27T07:26:11;0.90;99.90
18868;DHT22;9563;49.240;9.088;2024-01-27T07:28:38;1.10;99.90
18868;DHT22;9563;49.240;9.088;2024-01-27T07:31:05;1.30;99.90
18868;DHT22;9563;49.240;9.088;2024-01-27T07:33:34;1.40;99.90
18868;DHT22;9563;49.240;9.088;2024-01-27T07:36:02;1.70;99.90
18868;DHT22;9563;49.240;9.088;2024-01-27T07:38:29;2.10;99.90
18868;DHT22;9563;49.240;9.088;2024-01-27T07:40:56;2.40;99.90
18868;DHT22;9563;49.240;9.088;2024-01-27T07:43:25;2.70;99.90
18868;DHT22;9563;49.240;9.088;2024-01-27T07:45:52;3.10;99.90
18868;DHT22;9563;49.240;9.088;2024-01-27T07:48:20;3.50;99.90
18868;DHT22;9563;49.240;9.088;2024-01-27T07:50:47;3.90;99.90
18868;DHT22;9563;49.240;9.088;2024-01-27T07:53:17;4.30;99.90
18868;DHT22;9563;49.240;9.088;2024-01-27T07:55:44;4.50;99.90
18868;DHT22;9563;49.240;9.088;2024-01-27T07:58:11;4.50;99.90
18868;DHT22;9563;49.240;9.088;2024-01-27T08:00:38;4.40;99.90
18868;DHT22;9563;49.240;9.088;2024-01-27T08:03:05;4.30;99.90
18868;DHT22;9563;49.240;9.088;2024-01-27T08:05:31;4.60;99.90
18868;DHT22;9563;49.240;9.088;2024-01-27T08:07:58;4.80;99.90
18868;DHT22;9563;49.240;9.088;2024-01-27T08:10:26;4.90;99.90
18868;DHT22;9563;49.240;9.088;2024-01-27T08:12:53;5.00;99.90
18868;DHT22;9563;49.240;9.088;2024-01-27T08:15:20;5.10;99.90
18868;DHT22;9563;49.240;9.088;2024-01-27T08:17:47;5.60;99.90
18868;DHT22;9563;49.240;9.088;2024-01-27T08:20:14;5.70;99.90
18868;DHT22;9563;49.240;9.088;2024-01-27T08:22:41;6.00;99.90
18868;DHT22;9563;49.240;9.088;2024-01-27T08:25:08;6.40;99.90
18868;DHT22;9563;49.240;9.088;2024-01-27T08:27:37;6.70;99.90
18868;DHT22;9563;49.240;9.088;2024-01-27T08:30:05;6.80;99.90
18868;DHT22;9563;49.240;9.088;2024-01-27T08:32:33;6.30;99.90
18868;DHT22;9563;49.240;9.088;2024-01-27T08:35:00;6.30;99.90
18868;DHT22;9563;49.240;9.088;2024-01-27T08:37:27;6.50;99.90
18868;DHT22;9563;49.240;9.088;2024-01-27T08:39:54;6.70;99.90
18868;DHT22;9563;49.240;9.088;2024-01-27T08:42:21;6.80;99.90
18868;DHT22;9563;49.240;9.088;2024-01-27T08:44:50;7.20;99.90
18868;DHT22;9563;49.240;9.088;2024-01-27T08:47:17;7.70;99.90
18868;DHT22;9563;49.240;9.088;2024-01-27T08:49:44;8.00;99.90
18868;DHT22;9563;49.240;9.088;2024-01-27T08:52:11;8.50;99.90
18868;DHT22;9563;49.240;9.088;2024-01-27T08:54:38;9.00;99.90
18868;DHT22;9563;49.240;9.088;2024-01-27T08:57:05;8.80;99.90
18868;DHT22;9563;49.240;9.088;2024-01-27T08:59:32;9.20;99.90
18868;DHT22;9563;49.240;9.088;2024-01-27T09:02:01;9.40;99.90
18868;DHT22;9563;49.240;9.088;2024-01-27T09:04:28;9.50;99.90
18868;DHT22;9563;49.240;9.088;2024-01-27T09:06:55;9.50;99.90
18868;DHT22;9563;49.240;9.088;2024-01-27T09:09:22;9.20;99.90
18868;DHT22;9563;49.240;9.088;2024-01-27T09:11:49;9.10;99.90
18868;DHT22;9563;49.240;9.088;2024-01-27T09:14:16;9.20;99.90
18868;DHT22;9563;49.240;9.088;2024-01-27T09:16:42;9.10;99.90
18868;DHT22;9563;49.240;9.088;2024-01-27T09:19:12;8.60;99.90
18868;DHT22;9563;49.240;9.088;2024-01-27T09:21:39;8.60;99.90
18868;DHT22;9563;49.240;9.088;2024-01-27T09:24:06;8.40;99.90
18868;DHT22;9563;49.240;9.088;2024-01-27T09:26:33;8.50;99.90
18868;DHT22;9563;49.240;9.088;2024-01-27T09:29:00;8.30;99.90
18868;DHT22;9563;49.240;9.088;2024-01-27T09:31:27;7.80;99.90
18868;DHT22;9563;49.240;9.088;2024-01-27T09:33:54;8.00;99.90
18868;DHT22;9563;49.240;9.088;2024-01-27T09:36:23;8.00;99.90
18868;DHT22;9563;49.240;9.088;2024-01-27T09:38:49;8.10;99.90
18868;DHT22;9563;49.240;9.088;2024-01-27T09:41:18;8.20;99.90
18868;DHT22;9563;49.240;9.088;2024-01-27T09:43:45;8.20;99.90
18868;DHT22;9563;49.240;9.088;2024-01-27T09:46:13;8.40;99.90
18868;DHT22;9563;49.240;9.088;2024-01-27T09:48:40;8.50;99.90
18868;DHT22;9563;49.240;9.088;2024-01-27T09:51:08;8.50;99.90
18868;DHT22;9563;49.240;9.088;2024-01-27T09:53:37;8.50;99.90
18868;DHT22;9563;49.240;9.088;2024-01-27T09:56:04;8.70;99.90
18868;DHT22;9563;49.240;9.088;2024-01-27T09:58:33;8.90;99.90
18868;DHT22;9563;49.240;9.088;2024-01-27T10:01:00;9.00;99.90
18868;DHT22;9563;49.240;9.088;2024-01-27T10:03:28;9.00;99.90
18868;DHT22;9563;49.240;9.088;2024-01-27T10:05:56;9.20;99.90
18868;DHT22;9563;49.240;9.088;2024-01-27T10:08:25;9.30;99.90
18868;DHT22;9563;49.240;9.088;2024-01-27T10:10:54;9.20;99.90
18868;DHT22;9563;49.240;9.088;2024-01-27T10:13:22;9.30;99.90
18868;DHT22;9563;49.240;9.088;2024-01-27T10:15:59;9.30;99.90
18868;DHT22;9563;49.240;9.088;2024-01-27T10:18:26;9.60;99.90
18868;DHT22;9563;49.240;9.088;2024-01-27T10:20:53;9.60;99.90
18868;DHT22;9563;49.240;9.088;2024-01-27T10:23:19;9.60;99.90
18868;DHT22;9563;49.240;9.088;2024-01-27T10:25:46;9.60;99.90
18868;DHT22;9563;49.240;9.088;2024-01-27T10:28:15;9.80;99.90
18868;DHT22;9563;49.240;9.088;2024-01-27T10:30:43;9.80;99.90
18868;DHT22;9563;49.240;9.088;2024-01-27T10:33:10;10.10;99.90
18868;DHT22;9563;49.240;9.088;2024-01-27T10:35:39;9.90;99.90
18868;DHT22;9563;49.240;9.088;2024-01-27T10:38:05;10.00;99.90
18868;DHT22;9563;49.240;9.088;2024-01-27T10:40:33;10.10;99.90
18868;DHT22;9563;49.240;9.088;2024-01-27T10:43:01;10.20;99.90
18868;DHT22;9563;49.240;9.088;2024-01-27T10:45:34;10.10;99.90
18868;DHT22;9563;49.240;9.088;2024-01-27T10:48:03;10.30;99.90
18868;DHT22;9563;49.240;9.088;2024-01-27T10:50:31;10.30;99.90
18868;DHT22;9563;49.240;9.088;2024-01-27T10:53:00;10.60;99.90
18868;DHT22;9563;49.240;9.088;2024-01-27T10:55:29;10.70;99.90
18868;DHT22;9563;49.240;9.088;2024-01-27T10:57:59;10.70;99.90
18868;DHT22;9563;49.240;9.088;2024-01-27T11:00:29;10.90;99.90
18868;DHT22;9563;49.240;9.088;2024-01-27T11:03:01;11.00;99.90
18868;DHT22;9563;49.240;9.088;2024-01-27T11:05:31;11.00;99.90
18868;DHT22;9563;49.240;9.088;2024-01-27T11:08:01;10.90;99.90
18868;DHT22;9563;49.240;9.088;2024-01-27T11:10:29;10.90;99.90
18868;DHT22;9563;49.240;9.088;2024-01-27T11:13:01;11.00;99.90
18868;DHT22;9563;49.240;9.088;2024-01-27T11:15:29;10.60;99.90
18868;DHT22;9563;49.240;9.088;2024-01-27T11:17:58;10.40;99.90
18868;DHT22;9563;49.240;9.088;2024-01-27T11:20:27;10.20;99.90
18868;DHT22;9563;49.240;9.088;2024-01-27T11:23:08;10.00;99.90
18868;DHT22;9563;49.240;9.088;2024-01-27T11:25:35;10.00;99.90
18868;DHT22;9563;49.240;9.088;2024-01-27T11:28:10;10.00;99.90
18868;DHT22;9563;49.240;9.088;2024-01-27T11:30:38;9.80;99.90
18868;DHT22;9563;49.240;9.088;2024-01-27T11:33:07;9.70;99.90
18868;DHT22;9563;49.240;9.088;2024-01-27T11:35:34;9.90;99.90
18868;DHT22;9563;49.240;9.088;2024-01-27T11:38:01;9.80;99.90
18868;DHT22;9563;49.240;9.088;2024-01-27T11:40:28;9.80;99.90
18868;DHT22;9563;49.240;9.088;2024-01-27T11:42:55;9.50;99.90
18868;DHT22;9563;49.240;9.088;2024-01-27T11:45:23;9.50;99.90
18868;DHT22;9563;49.240;9.088;2024-01-27T11:47:50;9.60;99.90
18868;DHT22;9563;49.240;9.088;2024-01-27T11:50:18;9.60;99.90
18868;DHT22;9563;49.240;9.088;2024-01-27T11:52:46;9.70;99.90
18868;DHT22;9563;49.240;9.088;2024-01-27T11:55:13;9.70;99.90
18868;DHT22;9563;49.240;9.088;2024-01-27T11:57:41;9.80;99.90
18868;DHT22;9563;49.240;9.088;2024-01-27T12:00:09;10.00;99.90
18868;DHT22;9563;49.240;9.088;2024-01-27T12:02:36;10.10;99.90
18868;DHT22;9563;49.240;9.088;2024-01-27T12:05:04;10.20;99.90
18868;DHT22;9563;49.240;9.088;2024-01-27T12:07:32;10.30;99.90
18868;DHT22;9563;49.240;9.088;2024-01-27T12:09:59;10.70;99.90
18868;DHT22;9563;49.240;9.088;2024-01-27T12:12:26;10.90;99.90
18868;DHT22;9563;49.240;9.088;2024-01-27T12:14:53;11.10;99.90
18868;DHT22;9563;49.240;9.088;2024-01-27T12:17:21;11.10;99.90
18868;DHT22;9563;49.240;9.088;2024-01-27T12:19:49;11.20;99.90
18868;DHT22;9563;49.240;9.088;2024-01-27T12:22:22;11.30;99.90
18868;DHT22;9563;49.240;9.088;2024-01-27T12:24:51;11.40;99.90
18868;DHT22;9563;49.240;9.088;2024-01-27T12:27:19;11.60;99.90
18868;DHT22;9563;49.240;9.088;2024-01-27T12:29:47;11.70;99.90
18868;DHT22;9563;49.240;9.088;2024-01-27T12:32:15;11.80;99.90
18868;DHT22;9563;49.240;9.088;2024-01-27T12:34:42;11.90;99.90
18868;DHT22;9563;49.240;9.088;2024-01-27T12:37:11;11.70;99.90
18868;DHT22;9563;49.240;9.088;2024-01-27T12:39:42;12.00;99.90
18868;DHT22;9563;49.240;9.088;2024-01-27T12:42:11;12.00;99.90
18868;DHT22;9563;49.240;9.088;2024-01-27T12:44:38;12.10;99.90
18868;DHT22;9563;49.240;9.088;2024-01-27T12:47:05;12.40;99.90
18868;DHT22;9563;49.240;9.088;2024-01-27T12:49:32;12.50;99.90
18868;DHT22;9563;49.240;9.088;2024-01-27T12:51:59;12.50;99.90
18868;DHT22;9563;49.240;9.088;2024-01-27T12:54:27;12.50;99.90
18868;DHT22;9563;49.240;9.088;2024-01-27T12:56:56;12.60;99.90
18868;DHT22;9563;49.240;9.088;2024-01-27T12:59:25;12.50;99.90
18868;DHT22;9563;49.240;9.088;2024-01-27T13:01:52;12.70;99.90
18868;DHT22;9563;49.240;9.088;2024-01-27T13:04:19;12.50;99.90
18868;DHT22;9563;49.240;9.088;2024-01-27T13:06:46;12.30;99.90
18868;DHT22;9563;49.240;9.088;2024-01-27T13:09:13;12.30;99.90
18868;DHT22;9563;49.240;9.088;2024-01-27T13:11:40;12.40;99.90
18868;DHT22;9563;49.240;9.088;2024-01-27T13:14:08;12.60;99.90
18868;DHT22;9563;49.240;9.088;2024-01-27T13:16:36;12.60;99.90
18868;DHT22;9563;49.240;9.088;2024-01-27T13:19:03;12.80;99.90
18868;DHT22;9563;49.240;9.088;2024-01-27T13:21:30;12.80;99.90
18868;DHT22;9563;49.240;9.088;2024-01-27T13:23:57;12.90;99.90
18868;DHT22;9563;49.240;9.088;2024-01-27T13:26:24;13.00;99.90
18868;DHT22;9563;49.240;9.088;2024-01-27T13:28:51;12.90;99.90
18868;DHT22;9563;49.240;9.088;2024-01-27T13:31:18;13.00;99.90
18868;DHT22;9563;49.240;9.088;2024-01-27T13:33:46;12.70;99.90
18868;DHT22;9563;49.240;9.088;2024-01-27T13:36:13;12.70;99.90
18868;DHT22;9563;49.240;9.088;2024-01-27T13:38:40;12.80;99.90
18868;DHT22;9563;49.240;9.088;2024-01-27T13:41:07;12.80;99.90
18868;DHT22;9563;49.240;9.088;2024-01-27T13:43:34;12.70;99.90
18868;DHT22;9563;49.240;9.088;2024-01-27T13:46:01;12.60;99.90
18868;DHT22;9563;49.240;9.088;2024-01-27T13:48:28;12.60;99.90
18868;DHT22;9563;49.240;9.088;2024-01-27T13:50:56;12.40;99.90
18868;DHT22;9563;49.240;9.088;2024-01-27T13:53:23;12.20;99.90
18868;DHT22;9563;49.240;9.088;2024-01-27T13:55:50;12.30;99.90
18868;DHT22;9563;49.240;9.088;2024-01-27T13:58:18;12.10;99.90
18868;DHT22;9563;49.240;9.088;2024-01-27T14:00:45;12.30;99.90
18868;DHT22;9563;49.240;9.088;2024-01-27T14:03:12;12.30;99.90
18868;DHT22;9563;49.240;9.088;2024-01-27T14:05:39;12.40;99.90
18868;DHT22;9563;49.240;9.088;2024-01-27T14:08:09;12.30;99.90
18868;DHT22;9563;49.240;9.088;2024-01-27T14:10:36;12.30;99.90
18868;DHT22;9563;49.240;9.088;2024-01-27T14:13:04;12.20;99.90
18868;DHT22;9563;49.240;9.088;2024-01-27T14:15:34;12.20;99.90
18868;DHT22;9563;49.240;9.088;2024-01-27T14:18:01;12.10;99.90
18868;DHT22;9563;49.240;9.088;2024-01-27T14:20:29;11.90;99.90
18868;DHT22;9563;49.240;9.088;2024-01-27T14:22:58;11.80;99.90
18868;DHT22;9563;49.240;9.088;2024-01-27T14:25:26;11.50;99.90
18868;DHT22;9563;49.240;9.088;2024-01-27T14:27:53;11.20;99.90
18868;DHT22;9563;49.240;9.088;2024-01-27T14:30:20;11.10;99.90
18868;DHT22;9563;49.240;9.088;2024-01-27T14:32:48;11.00;99.90
18868;DHT22;9563;49.240;9.088;2024-01-27T14:35:15;10.80;99.90
18868;DHT22;9563;49.240;9.088;2024-01-27T14:37:42;10.70;99.90
18868;DHT22;9563;49.240;9.088;2024-01-27T14:40:10;10.50;99.90
18868;DHT22;9563;49.240;9.088;2024-01-27T14:42:40;10.40;99.90
18868;DHT22;9563;49.240;9.088;2024-01-27T14:45:08;10.50;99.90
18868;DHT22;9563;49.240;9.088;2024-01-27T14:47:35;10.40;99.90
18868;DHT22;9563;49.240;9.088;2024-01-27T14:50:03;10.40;99.90
18868;DHT22;9563;49.240;9.088;2024-01-27T14:52:31;10.20;99.90
18868;DHT22;9563;49.240;9.088;2024-01-27T14:54:58;10.20;99.90
18868;DHT22;9563;49.240;9.088;2024-01-27T14:57:25;10.00;99.90
18868;DHT22;9563;49.240;9.088;2024-01-27T14:59:54;9.90;99.90
18868;DHT22;9563;49.240;9.088;2024-01-27T15:02:20;9.70;99.90
18868;DHT22;9563;49.240;9.088;2024-01-27T15:04:47;9.40;99.90
18868;DHT22;9563;49.240;9.088;2024-01-27T15:07:14;9.40;99.90
18868;DHT22;9563;49.240;9.088;2024-01-27T15:09:43;9.30;99.90
18868;DHT22;9563;49.240;9.088;2024-01-27T15:12:10;9.20;99.90
18868;DHT22;9563;49.240;9.088;2024-01-27T15:14:37;9.20;99.90
18868;DHT22;9563;49.240;9.088;2024-01-27T15:17:06;9.00;99.90
18868;DHT22;9563;49.240;9.088;2024-01-27T15:19:33;9.00;99.90
18868;DHT22;9563;49.240;9.088;2024-01-27T15:22:00;9.00;99.90
18868;DHT22;9563;49.240;9.088;2024-01-27T15:24:27;8.80;99.90
18868;DHT22;9563;49.240;9.088;2024-01-27T15:26:54;8.90;99.90
18868;DHT22;9563;49.240;9.088;2024-01-27T15:29:21;9.10;99.90
18868;DHT22;9563;49.240;9.088;2024-01-27T15:31:48;9.30;99.90
18868;DHT22;9563;49.240;9.088;2024-01-27T15:34:16;9.70;99.90
18868;DHT22;9563;49.240;9.088;2024-01-27T15:36:43;10.10;99.90
18868;DHT22;9563;49.240;9.088;2024-01-27T15:39:11;10.50;99.90
18868;DHT22;9563;49.240;9.088;2024-01-27T15:41:37;10.80;99.90
18868;DHT22;9563;49.240;9.088;2024-01-27T15:44:05;10.90;99.90
18868;DHT22;9563;49.240;9.088;2024-01-27T15:46:32;10.70;99.90
18868;DHT22;9563;49.240;9.088;2024-01-27T15:48:58;10.60;99.90
18868;DHT22;9563;49.240;9.088;2024-01-27T15:51:27;10.40;99.90
18868;DHT22;9563;49.240;9.088;2024-01-27T15:53:54;10.10;99.90
18868;DHT22;9563;49.240;9.088;2024-01-27T15:56:21;9.70;99.90
18868;DHT22;9563;49.240;9.088;2024-01-27T15:58:48;9.50;99.90
18868;DHT22;9563;49.240;9.088;2024-01-27T16:01:14;9.20;99.90
18868;DHT22;9563;49.240;9.088;2024-01-27T16:03:41;9.10;99.90
18868;DHT22;9563;49.240;9.088;2024-01-27T16:06:08;8.80;99.90
18868;DHT22;9563;49.240;9.088;2024-01-27T16:08:36;8.50;99.90
18868;DHT22;9563;49.240;9.088;2024-01-27T16:11:03;8.20;99.90
18868;DHT22;9563;49.240;9.088;2024-01-27T16:13:30;8.00;99.90
18868;DHT22;9563;49.240;9.088;2024-01-27T16:15:57;7.70;99.90
18868;DHT22;9563;49.240;9.088;2024-01-27T16:18:24;7.50;99.90
18868;DHT22;9563;49.240;9.088;2024-01-27T16:20:51;7.40;99.90
18868;DHT22;9563;49.240;9.088;2024-01-27T16:23:18;7.20;99.90
18868;DHT22;9563;49.240;9.088;2024-01-27T16:25:46;7.00;99.90
18868;DHT22;9563;49.240;9.088;2024-01-27T16:28:13;6.90;99.90
18868;DHT22;9563;49.240;9.088;2024-01-27T16:30:40;6.80;99.90
18868;DHT22;9563;49.240;9.088;2024-01-27T16:33:07;6.70;99.90
18868;DHT22;9563;49.240;9.088;2024-01-27T16:35:34;6.40;99.90
18868;DHT22;9563;49.240;9.088;2024-01-27T16:38:01;6.10;99.90
18868;DHT22;9563;49.240;9.088;2024-01-27T16:40:28;5.90;99.90
18868;DHT22;9563;49.240;9.088;2024-01-27T16:42:57;5.60;99.90
18868;DHT22;9563;49.240;9.088;2024-01-27T16:45:23;5.60;99.90
18868;DHT22;9563;49.240;9.088;2024-01-27T16:47:50;5.60;99.90
18868;DHT22;9563;49.240;9.088;2024-01-27T16:50:17;5.60;99.90
18868;DHT22;9563;49.240;9.088;2024-01-27T16:52:44;5.50;99.90
18868;DHT22;9563;49.240;9.088;2024-01-27T16:55:11;5.50;99.90
18868;DHT22;9563;49.240;9.088;2024-01-27T16:57:38;5.40;99.90
18868;DHT22;9563;49.240;9.088;2024-01-27T17:00:09;5.40;99.90
18868;DHT22;9563;49.240;9.088;2024-01-27T17:02:37;5.30;99.90
18868;DHT22;9563;49.240;9.088;2024-01-27T17:05:04;5.20;99.90
18868;DHT22;9563;49.240;9.088;2024-01-27T17:07:31;4.90;99.90
18868;DHT22;9563;49.240;9.088;2024-01-27T17:09:58;4.70;99.90
18868;DHT22;9563;49.240;9.088;2024-01-27T17:12:25;4.60;99.90
18868;DHT22;9563;49.240;9.088;2024-01-27T17:14:52;4.40;99.90
18868;DHT22;9563;49.240;9.088;2024-01-27T17:17:21;4.20;99.90
18868;DHT22;9563;49.240;9.088;2024-01-27T17:19:48;4.20;99.90
18868;DHT22;9563;49.240;9.088;2024-01-27T17:22:14;4.30;99.90
18868;DHT22;9563;49.240;9.088;2024-01-27T17:24:42;4.40;99.90
18868;DHT22;9563;49.240;9.088;2024-01-27T17:27:10;4.40;99.90
18868;DHT22;9563;49.240;9.088;2024-01-27T17:29:37;4.30;99.90
18868;DHT22;9563;49.240;9.088;2024-01-27T17:32:04;4.40;99.90
18868;DHT22;9563;49.240;9.088;2024-01-27T17:34:33;4.50;99.90
18868;DHT22;9563;49.240;9.088;2024-01-27T17:37:00;4.40;99.90
18868;DHT22;9563;49.240;9.088;2024-01-27T17:39:28;4.40;99.90
18868;DHT22;9563;49.240;9.088;2024-01-27T17:41:55;4.50;99.90
18868;DHT22;9563;49.240;9.088;2024-01-27T17:44:22;4.50;99.90
18868;DHT22;9563;49.240;9.088;2024-01-27T17:46:49;4.40;99.90
18868;DHT22;9563;49.240;9.088;2024-01-27T17:49:16;4.40;99.90
18868;DHT22;9563;49.240;9.088;2024-01-27T17:51:46;4.40;99.90
18868;DHT22;9563;49.240;9.088;2024-01-27T17:54:13;4.40;99.90
18868;DHT22;9563;49.240;9.088;2024-01-27T17:56:40;4.40;99.90
18868;DHT22;9563;49.240;9.088;2024-01-27T17:59:07;4.40;99.90
18868;DHT22;9563;49.240;9.088;2024-01-27T18:01:34;4.50;99.90
18868;DHT22;9563;49.240;9.088;2024-01-27T18:04:01;4.50;99.90
18868;DHT22;9563;49.240;9.088;2024-01-27T18:06:28;4.60;99.90
18868;DHT22;9563;49.240;9.088;2024-01-27T18:08:56;4.60;99.90
18868;DHT22;9563;49.240;9.088;2024-01-27T18:11:23;4.70;99.90
18868;DHT22;9563;49.240;9.088;2024-01-27T18:13:50;4.70;99.90
18868;DHT22;9563;49.240;9.088;2024-01-27T18:16:18;4.70;99.90
18868;DHT22;9563;49.240;9.088;2024-01-27T18:18:45;4.70;99.90
18868;DHT22;9563;49.240;9.088;2024-01-27T18:21:12;4.60;99.90
18868;DHT22;9563;49.240;9.088;2024-01-27T18:23:39;4.60;99.90
18868;DHT22;9563;49.240;9.088;2024-01-27T18:26:07;4.60;99.90
18868;DHT22;9563;49.240;9.088;2024-01-27T18:28:34;4.60;99.90
18868;DHT22;9563;49.240;9.088;2024-01-27T18:31:01;4.60;99.90
18868;DHT22;9563;49.240;9.088;2024-01-27T18:33:28;4.70;99.90
18868;DHT22;9563;49.240;9.088;2024-01-27T18:35:55;4.70;99.90
18868;DHT22;9563;49.240;9.088;2024-01-27T18:38:22;4.70;99.90
18868;DHT22;9563;49.240;9.088;2024-01-27T18:40:50;4.60;99.90
18868;DHT22;9563;49.240;9.088;2024-01-27T18:43:18;4.60;99.90
18868;DHT22;9563;49.240;9.088;2024-01-27T18:45:45;4.70;99.90
18868;DHT22;9563;49.240;9.088;2024-01-27T18:48:12;4.70;99.90
18868;DHT22;9563;49.240;9.088;2024-01-27T18:50:39;4.80;99.90
18868;DHT22;9563;49.240;9.088;2024-01-27T18:53:07;4.80;99.90
18868;DHT22;9563;49.240;9.088;2024-01-27T18:55:34;4.70;99.90
18868;DHT22;9563;49.240;9.088;2024-01-27T18:58:04;4.60;99.90
18868;DHT22;9563;49.240;9.088;2024-01-27T19:00:34;4.40;99.90
18868;DHT22;9563;49.240;9.088;2024-01-27T19:03:03;4.30;99.90
18868;DHT22;9563;49.240;9.088;2024-01-27T19:05:32;4.10;99.90
18868;DHT22;9563;49.240;9.088;2024-01-27T19:07:59;4.10;99.90
18868;DHT22;9563;49.240;9.088;2024-01-27T19:10:26;4.20;99.90
18868;DHT22;9563;49.240;9.088;2024-01-27T19:12:53;4.20;99.90
18868;DHT22;9563;49.240;9.088;2024-01-27T19:15:20;4.20;99.90
18868;DHT22;9563;49.240;9.088;2024-01-27T19:17:48;4.30;99.90
18868;DHT22;9563;49.240;9.088;2024-01-27T19:20:15;4.30;99.90
18868;DHT22;9563;49.240;9.088;2024-01-27T19:22:42;4.40;99.90
18868;DHT22;9563;49.240;9.088;2024-01-27T19:25:12;4.30;99.90
18868;DHT22;9563;49.240;9.088;2024-01-27T19:27:38;4.20;99.90
18868;DHT22;9563;49.240;9.088;2024-01-27T19:30:06;4.20;99.90
18868;DHT22;9563;49.240;9.088;2024-01-27T19:32:33;4.20;99.90
18868;DHT22;9563;49.240;9.088;2024-01-27T19:35:02;4.20;99.90
18868;DHT22;9563;49.240;9.088;2024-01-27T19:37:29;4.30;99.90
18868;DHT22;9563;49.240;9.088;2024-01-27T19:39:56;4.30;99.90
18868;DHT22;9563;49.240;9.088;2024-01-27T19:42:23;4.40;99.90
18868;DHT22;9563;49.240;9.088;2024-01-27T19:44:51;4.40;99.90
18868;DHT22;9563;49.240;9.088;2024-01-27T19:47:18;4.40;99.90
18868;DHT22;9563;49.240;9.088;2024-01-27T19:49:45;4.40;99.90
18868;DHT22;9563;49.240;9.088;2024-01-27T19:52:13;4.20;99.90
18868;DHT22;9563;49.240;9.088;2024-01-27T19:54:43;4.20;99.90
18868;DHT22;9563;49.240;9.088;2024-01-27T19:57:10;4.10;99.90
18868;DHT22;9563;49.240;9.088;2024-01-27T19:59:38;4.00;99.90
18868;DHT22;9563;49.240;9.088;2024-01-27T20:02:05;3.90;99.90
18868;DHT22;9563;49.240;9.088;2024-01-27T20:04:32;3.90;99.90
18868;DHT22;9563;49.240;9.088;2024-01-27T20:07:01;3.90;99.90
18868;DHT22;9563;49.240;9.088;2024-01-27T20:09:29;4.00;99.90
18868;DHT22;9563;49.240;9.088;2024-01-27T20:11:56;4.10;99.90
18868;DHT22;9563;49.240;9.088;2024-01-27T20:14:23;4.10;99.90
18868;DHT22;9563;49.240;9.088;2024-01-27T20:16:50;4.00;99.90
18868;DHT22;9563;49.240;9.088;2024-01-27T20:19:18;4.10;99.90
18868;DHT22;9563;49.240;9.088;2024-01-27T20:21:46;4.10;99.90
18868;DHT22;9563;49.240;9.088;2024-01-27T20:24:13;4.10;99.90
18868;DHT22;9563;49.240;9.088;2024-01-27T20:26:43;4.10;99.90
18868;DHT22;9563;49.240;9.088;2024-01-27T20:29:10;4.20;99.90
18868;DHT22;9563;49.240;9.088;2024-01-27T20:31:37;4.20;99.90
18868;DHT22;9563;49.240;9.088;2024-01-27T20:34:04;4.00;99.90
18868;DHT22;9563;49.240;9.088;2024-01-27T20:36:31;4.00;99.90
18868;DHT22;9563;49.240;9.088;2024-01-27T20:38:58;3.90;99.90
18868;DHT22;9563;49.240;9.088;2024-01-27T20:41:25;3.90;99.90
18868;DHT22;9563;49.240;9.088;2024-01-27T20:43:54;3.70;99.90
18868;DHT22;9563;49.240;9.088;2024-01-27T20:46:21;3.70;99.90
18868;DHT22;9563;49.240;9.088;2024-01-27T20:48:48;3.60;99.90
18868;DHT22;9563;49.240;9.088;2024-01-27T20:51:15;3.60;99.90
18868;DHT22;9563;49.240;9.088;2024-01-27T20:53:42;3.50;99.90
18868;DHT22;9563;49.240;9.088;2024-01-27T20:56:09;3.50;99.90
18868;DHT22;9563;49.240;9.088;2024-01-27T20:58:36;3.40;99.90